Time;durP1;ratioP1;P1;durP2;ratioP2;P2;SDS_P1;SDS_P2;PMS_P1;PMS_P2;Temp;Humidity;BMP_temperature;BMP_pressure;BME280_temperature;BME280_humidity;BME280_pressure;Samples;Min_cycle;Max_cycle;Signal;HPM_P1;HPM_P2
2023/01/21 00:01:06;;;;;;;27.20;20.67;;;-2.80;99.90;;;;;;5134648;27;20749;-66
2023/01/21 00:03:34;;;;;;;25.53;18.80;;;-2.70;1.00;;;;;;5124537;28;20872;-66
2023/01/21 00:06:03;;;;;;;27.50;18.30;;;-2.70;1.00;;;;;;5124706;27;20896;-66
2023/01/21 00:08:30;;;;;;;27.23;18.30;;;-2.70;99.90;;;;;;5124004;28;20459;-66
2023/01/21 00:11:04;;;;;;;27.30;18.83;;;-2.70;1.00;;;;;;5126594;27;20979;-66
2023/01/21 00:13:31;;;;;;;26.87;18.77;;;-2.70;1.00;;;;;;5145123;27;20499;-66
2023/01/21 00:15:58;;;;;;;26.10;17.90;;;-2.70;1.00;;;;;;5144714;27;20458;-66
2023/01/21 00:18:25;;;;;;;24.63;18.20;;;-2.70;1.00;;;;;;5144883;27;20425;-66
2023/01/21 00:20:52;;;;;;;24.40;17.40;;;-2.70;1.00;;;;;;5144644;27;20444;-66
2023/01/21 00:23:21;;;;;;;30.20;18.37;;;-2.70;1.00;;;;;;5127188;27;20465;-66
2023/01/21 00:25:48;;;;;;;28.77;19.70;;;-2.80;1.00;;;;;;5124628;28;20461;-66
2023/01/21 00:28:15;;;;;;;27.90;19.60;;;-2.80;1.00;;;;;;5123826;28;20459;-66
2023/01/21 00:30:42;;;;;;;24.90;18.50;;;-2.80;99.90;;;;;;5124168;28;20455;-66
2023/01/21 00:33:09;;;;;;;26.73;18.33;;;-2.80;99.90;;;;;;5124152;27;20481;-66
2023/01/21 00:35:36;;;;;;;30.90;21.00;;;-2.90;99.90;;;;;;5124018;27;20459;-66
2023/01/21 00:38:03;;;;;;;26.33;18.23;;;-2.90;99.90;;;;;;5123711;28;20460;-66
2023/01/21 00:40:32;;;;;;;27.63;19.20;;;-2.90;99.90;;;;;;5123949;28;20529;-66
2023/01/21 00:42:59;;;;;;;26.63;18.97;;;-2.90;99.90;;;;;;5130415;27;20454;-66
2023/01/21 00:45:26;;;;;;;23.80;17.23;;;-2.90;1.00;;;;;;5145027;27;20536;-66
2023/01/21 00:47:53;;;;;;;28.07;18.30;;;-3.00;1.00;;;;;;5144451;27;20467;-66
2023/01/21 00:50:20;;;;;;;27.87;17.70;;;-3.00;99.90;;;;;;5144512;27;20465;-65
2023/01/21 00:52:47;;;;;;;25.37;18.00;;;-3.00;24.10;;;;;;5152937;27;20457;-65
2023/01/21 00:55:15;;;;;;;30.73;18.33;;;-3.00;99.90;;;;;;5142948;27;20445;-65
2023/01/21 00:57:43;;;;;;;26.47;18.60;;;-3.00;1.00;;;;;;5140934;27;20469;-65
2023/01/21 01:00:13;;;;;;;24.10;17.47;;;-3.00;99.90;;;;;;5140963;27;20486;-65
2023/01/21 01:02:40;;;;;;;24.33;17.17;;;-3.00;99.90;;;;;;5140846;27;20520;-65
2023/01/21 01:05:08;;;;;;;24.33;18.47;;;-3.10;99.90;;;;;;5124186;27;20463;-65
2023/01/21 01:07:39;;;;;;;26.10;18.10;;;-3.20;99.90;;;;;;5141043;27;20876;-65
2023/01/21 01:10:07;;;;;;;26.43;19.30;;;-3.20;99.90;;;;;;5140955;27;20429;-65
2023/01/21 01:12:35;;;;;;;26.53;18.10;;;-3.20;1.00;;;;;;5140850;27;20448;-65
2023/01/21 01:15:04;;;;;;;32.63;19.10;;;-3.20;1.00;;;;;;5129067;27;20529;-65
2023/01/21 01:17:31;;;;;;;28.00;20.87;;;-3.20;1.00;;;;;;5120571;28;20463;-65
2023/01/21 01:19:58;;;;;;;27.07;20.10;;;-3.20;1.00;;;;;;5120754;28;20465;-65
2023/01/21 01:22:26;;;;;;;28.03;19.43;;;-3.20;1.00;;;;;;5119856;28;20438;-65
2023/01/21 01:24:53;;;;;;;27.30;19.63;;;-3.30;81.80;;;;;;5126608;27;20454;-65
2023/01/21 01:27:20;;;;;;;25.03;19.70;;;-3.30;5.50;;;;;;5141139;27;20943;-65
2023/01/21 01:29:49;;;;;;;30.30;19.80;;;-3.40;1.00;;;;;;5141120;27;20455;-65
2023/01/21 01:32:17;;;;;;;30.10;21.20;;;-3.50;99.90;;;;;;5140901;27;20424;-65
2023/01/21 01:34:45;;;;;;;27.50;19.97;;;-3.40;1.00;;;;;;5138671;27;20490;-65
2023/01/21 01:37:12;;;;;;;26.90;20.30;;;-3.50;7.90;;;;;;5120155;28;20467;-65
2023/01/21 01:39:39;;;;;;;24.83;19.43;;;-3.60;99.90;;;;;;5120140;27;20457;-65
2023/01/21 01:42:06;;;;;;;31.50;20.80;;;-3.60;99.90;;;;;;5120297;28;20459;-65
2023/01/21 01:44:57;;;;;;;31.57;21.57;;;-3.50;99.90;;;;;;5119681;28;20463;-65
2023/01/21 01:47:30;;;;;;;28.10;22.00;;;-3.50;99.90;;;;;;5120479;27;20554;-65
2023/01/21 01:50:00;;;;;;;30.73;21.13;;;-3.50;99.90;;;;;;5120448;28;20451;-65
2023/01/21 01:52:28;;;;;;;29.83;19.70;;;-3.50;99.90;;;;;;5119902;28;20460;-65
2023/01/21 01:54:59;;;;;;;27.37;20.60;;;-3.60;99.90;;;;;;5119822;28;20438;-65
2023/01/21 01:57:32;;;;;;;27.70;18.23;;;-3.50;99.90;;;;;;5135447;27;20463;-65
2023/01/21 02:00:01;;;;;;;26.37;19.97;;;-3.50;1.50;;;;;;5139566;27;20538;-65
2023/01/21 02:02:31;;;;;;;26.20;18.77;;;-3.50;1.00;;;;;;5140005;27;20462;-65
2023/01/21 02:05:02;;;;;;;26.73;19.30;;;-3.50;1.00;;;;;;5140260;27;20462;-64
2023/01/21 02:07:38;;;;;;;29.23;18.83;;;-3.50;1.00;;;;;;5125426;27;20468;-65
2023/01/21 02:10:06;;;;;;;26.23;19.10;;;-3.60;99.90;;;;;;5118476;28;20809;-64
2023/01/21 02:12:34;;;;;;;24.57;16.67;;;-3.60;99.90;;;;;;5119097;28;20920;-64
2023/01/21 02:15:01;;;;;;;27.20;18.37;;;-3.60;99.90;;;;;;5119366;28;20542;-64
2023/01/21 02:17:46;;;;;;;27.60;18.57;;;-3.50;99.90;;;;;;5127997;27;20462;-64
2023/01/21 02:20:54;;;;;;;27.50;17.37;;;-3.50;99.90;;;;;;5138949;27;20487;-64
2023/01/21 02:23:32;;;;;;;26.67;17.80;;;-3.50;99.90;;;;;;5140038;27;20486;-64
2023/01/21 02:26:31;;;;;;;27.40;17.57;;;-3.60;1.00;;;;;;5140027;27;20465;-64
2023/01/21 02:29:41;;;;;;;24.47;18.50;;;-3.60;1.00;;;;;;5089411;28;20463;-64
2023/01/21 02:32:37;;;;;;;25.00;17.37;;;-3.60;1.00;;;;;;5119126;28;20462;-64
2023/01/21 02:35:10;;;;;;;23.77;18.10;;;-3.60;99.90;;;;;;5119088;28;20460;-64
2023/01/21 02:37:44;;;;;;;25.63;18.80;;;-3.60;99.90;;;;;;5120173;27;20517;-64
2023/01/21 02:40:17;;;;;;;25.23;17.83;;;-3.60;1.00;;;;;;5118954;28;20458;-64
2023/01/21 02:42:47;;;;;;;24.80;17.43;;;-3.60;1.00;;;;;;5118721;28;20452;-64
2023/01/21 02:45:27;;;;;;;25.67;19.10;;;-3.60;1.00;;;;;;5118527;28;20506;-64
2023/01/21 02:48:04;;;;;;;26.70;18.07;;;-3.70;1.00;;;;;;5118602;27;20899;-64
2023/01/21 02:50:35;;;;;;;24.97;18.07;;;-3.70;1.00;;;;;;5137740;27;20978;-64
2023/01/21 02:53:04;;;;;;;30.27;19.23;;;-3.70;1.00;;;;;;5138254;27;20462;-64
2023/01/21 02:55:34;;;;;;;28.17;20.00;;;-3.70;1.00;;;;;;5139124;27;20458;-64
2023/01/21 02:58:04;;;;;;;27.27;19.87;;;-3.70;1.00;;;;;;5139469;27;20462;-64
2023/01/21 03:00:46;;;;;;;28.03;20.20;;;-3.70;99.90;;;;;;5119569;27;20458;-64
2023/01/21 03:03:34;;;;;;;30.63;18.30;;;-3.70;99.90;;;;;;5118793;28;20520;-64
2023/01/21 03:06:33;;;;;;;27.17;19.10;;;-3.80;99.90;;;;;;5118872;28;20434;-64
2023/01/21 03:09:09;;;;;;;25.90;19.10;;;-3.80;1.00;;;;;;5119439;27;20463;-64
2023/01/21 03:11:37;;;;;;;25.90;18.93;;;-3.80;1.00;;;;;;5132639;27;20462;-64
2023/01/21 03:17:03;;;;;;;30.30;17.47;;;-3.70;73.40;;;;;;5118359;28;20942;-64
2023/01/21 03:19:40;;;;;;;26.20;17.57;;;-3.80;82.40;;;;;;5119985;27;20584;-64
2023/01/21 03:22:12;;;;;;;32.07;18.87;;;-3.80;27.70;;;;;;5138793;27;20458;-64
2023/01/21 03:24:41;;;;;;;26.63;18.20;;;-3.70;27.30;;;;;;5137757;27;20467;-64
2023/01/21 03:27:09;;;;;;;27.93;18.80;;;-3.80;1.00;;;;;;5138633;27;20463;-64
2023/01/21 03:29:40;;;;;;;25.07;17.50;;;-3.80;1.00;;;;;;5138914;27;20429;-64
2023/01/21 03:32:12;;;;;;;24.77;18.37;;;-3.80;1.00;;;;;;5138394;27;20466;-64
2023/01/21 03:34:43;;;;;;;24.83;18.10;;;-3.90;99.90;;;;;;5132851;27;20885;-64
2023/01/21 03:37:16;;;;;;;30.63;19.53;;;-4.00;99.90;;;;;;5118096;27;20438;-64
2023/01/21 03:39:50;;;;;;;26.63;18.73;;;-4.10;99.90;;;;;;5117878;28;20463;-64
2023/01/21 03:42:18;;;;;;;26.20;17.40;;;-4.10;1.00;;;;;;5117495;28;20466;-64
2023/01/21 03:44:46;;;;;;;25.17;17.37;;;-4.10;1.00;;;;;;5119824;28;20737;-64
2023/01/21 03:47:21;;;;;;;29.93;18.70;;;-4.10;1.00;;;;;;5138666;27;20462;-64
2023/01/21 03:49:52;;;;;;;28.13;20.23;;;-4.10;41.20;;;;;;5138316;27;20454;-64
2023/01/21 03:52:24;;;;;;;28.23;18.40;;;-4.00;99.90;;;;;;5137713;27;20459;-64
2023/01/21 03:54:51;;;;;;;32.23;18.40;;;-4.00;99.90;;;;;;5136548;27;20902;-64
2023/01/21 03:57:18;;;;;;;32.70;20.43;;;-4.00;99.90;;;;;;5116592;27;20599;-63
2023/01/21 03:59:45;;;;;;;29.23;19.13;;;-4.00;99.90;;;;;;5116841;28;20484;-63
2023/01/21 04:02:17;;;;;;;25.90;18.10;;;-4.00;99.90;;;;;;5116441;28;20535;-64
2023/01/21 04:04:45;;;;;;;33.77;20.70;;;-3.90;99.90;;;;;;5116553;28;20472;-64
2023/01/21 04:07:12;;;;;;;27.43;19.13;;;-4.00;99.90;;;;;;5131513;28;20768;-64
2023/01/21 04:09:41;;;;;;;32.10;20.07;;;-4.00;99.90;;;;;;5126996;27;20459;-64
2023/01/21 04:12:08;;;;;;;29.57;19.30;;;-3.90;99.90;;;;;;5138458;27;20879;-64
2023/01/21 04:14:35;;;;;;;31.10;20.80;;;-3.90;99.90;;;;;;5137879;27;20479;-64
2023/01/21 04:17:02;;;;;;;29.70;19.40;;;-3.90;99.90;;;;;;5138147;27;20440;-64
2023/01/21 04:19:29;;;;;;;27.63;19.23;;;-3.80;99.90;;;;;;5134684;27;20459;-64
2023/01/21 04:21:57;;;;;;;30.40;20.30;;;-3.80;99.90;;;;;;5117240;28;20445;-64
2023/01/21 04:24:24;;;;;;;29.70;20.87;;;-3.80;99.90;;;;;;5117595;28;20470;-64
2023/01/21 04:26:52;;;;;;;30.30;19.87;;;-3.90;99.90;;;;;;5117826;28;20459;-64
2023/01/21 04:29:20;;;;;;;34.47;22.00;;;-3.90;99.90;;;;;;5117452;28;20468;-64
2023/01/21 04:31:47;;;;;;;28.30;20.40;;;-3.90;99.90;;;;;;5136928;27;20458;-64
2023/01/21 04:34:15;;;;;;;31.10;20.73;;;-4.00;99.90;;;;;;5141518;27;20443;-64
2023/01/21 04:36:43;;;;;;;37.20;22.33;;;-3.90;99.90;;;;;;5141411;27;20532;-64
2023/01/21 04:39:10;;;;;;;30.23;19.90;;;-4.00;99.90;;;;;;5142177;27;20763;-64
2023/01/21 04:41:37;;;;;;;32.57;20.90;;;-4.00;99.90;;;;;;5129038;27;20829;-64
2023/01/21 04:44:06;;;;;;;29.10;19.23;;;-4.00;99.90;;;;;;5121276;28;20466;-64
2023/01/21 04:46:33;;;;;;;29.23;18.10;;;-4.10;67.20;;;;;;5121199;27;20741;-64
2023/01/21 04:49:01;;;;;;;27.60;18.57;;;-4.10;1.00;;;;;;5120879;28;20466;-64
2023/01/21 04:51:28;;;;;;;25.73;18.27;;;-4.10;1.00;;;;;;5127345;27;20466;-64
2023/01/21 04:53:55;;;;;;;30.37;19.60;;;-4.10;1.00;;;;;;5141660;27;20462;-64
2023/01/21 04:56:22;;;;;;;29.47;18.90;;;-4.20;99.90;;;;;;5141285;27;20468;-64
2023/01/21 04:58:49;;;;;;;29.13;18.53;;;-4.20;99.90;;;;;;5141388;27;20463;-64
2023/01/21 05:01:18;;;;;;;28.47;19.13;;;-4.20;35.50;;;;;;5139340;27;20787;-64
2023/01/21 05:03:45;;;;;;;24.23;17.20;;;-4.20;99.90;;;;;;5120908;28;20458;-63
2023/01/21 05:06:12;;;;;;;26.87;18.77;;;-4.30;99.90;;;;;;5120494;28;20430;-64
2023/01/21 05:08:39;;;;;;;30.03;18.27;;;-4.30;1.00;;;;;;5119850;28;20440;-63
2023/01/21 05:11:08;;;;;;;28.07;18.13;;;-4.30;99.90;;;;;;5120529;28;20757;-64
2023/01/21 05:13:36;;;;;;;27.40;18.60;;;-4.20;23.40;;;;;;5137130;27;20486;-64
2023/01/21 05:16:06;;;;;;;27.27;18.33;;;-4.30;99.90;;;;;;5140610;27;20761;-64
2023/01/21 05:18:35;;;;;;;31.10;18.57;;;-4.40;99.90;;;;;;5141038;27;20442;-63
2023/01/21 05:21:02;;;;;;;27.07;18.37;;;-4.50;99.90;;;;;;5140977;27;20494;-63
2023/01/21 05:23:29;;;;;;;30.27;19.27;;;-4.50;99.90;;;;;;5127354;27;20908;-64
2023/01/21 05:25:57;;;;;;;29.90;18.93;;;-4.50;77.90;;;;;;5120427;28;20459;-63
2023/01/21 05:28:24;;;;;;;28.63;19.23;;;-4.60;99.90;;;;;;5119954;28;20896;-63
2023/01/21 05:30:51;;;;;;;30.83;18.90;;;-4.60;1.00;;;;;;5120349;28;20459;-64
2023/01/21 05:33:22;;;;;;;35.20;21.50;;;-4.50;1.00;;;;;;5126973;27;20508;-64
2023/01/21 05:35:51;;;;;;;28.97;20.13;;;-4.60;99.90;;;;;;5140546;27;20466;-63
2023/01/21 05:38:18;;;;;;;31.90;19.43;;;-4.60;1.00;;;;;;5140295;27;20463;-63
2023/01/21 05:40:45;;;;;;;31.43;20.40;;;-4.60;88.80;;;;;;5140574;27;20930;-63
2023/01/21 05:43:12;;;;;;;30.03;20.50;;;-4.60;99.90;;;;;;5137184;27;20440;-64
2023/01/21 05:45:39;;;;;;;40.00;21.40;;;-4.60;99.90;;;;;;5120242;28;20762;-64
2023/01/21 05:48:07;;;;;;;32.83;21.10;;;-4.60;99.90;;;;;;5120088;27;20455;-64
2023/01/21 05:50:34;;;;;;;37.57;22.53;;;-4.60;99.90;;;;;;5119644;28;20437;-64
2023/01/21 05:53:03;;;;;;;34.50;21.23;;;-4.60;99.90;;;;;;5119490;28;20460;-62
2023/01/21 05:55:30;;;;;;;36.13;23.90;;;-4.60;90.00;;;;;;5137420;27;20440;-64
2023/01/21 05:57:57;;;;;;;30.40;20.73;;;-4.60;1.00;;;;;;5140566;27;20473;-64
2023/01/21 06:00:24;;;;;;;31.47;20.10;;;-4.70;99.90;;;;;;5140148;27;20465;-64
2023/01/21 06:02:52;;;;;;;35.13;20.17;;;-4.60;99.90;;;;;;5140545;27;20553;-64
2023/01/21 06:05:19;;;;;;;32.57;20.60;;;-4.70;1.00;;;;;;5126852;27;20464;-64
2023/01/21 06:07:46;;;;;;;31.20;18.37;;;-4.60;99.90;;;;;;5119517;28;20462;-62
2023/01/21 06:10:15;;;;;;;32.23;19.17;;;-4.60;99.90;;;;;;5118591;28;20546;-64
2023/01/21 06:12:42;;;;;;;34.23;22.30;;;-4.70;1.00;;;;;;5119179;28;20495;-64
2023/01/21 06:15:10;;;;;;;27.57;19.70;;;-4.80;72.60;;;;;;5125795;27;20949;-65
2023/01/21 06:17:39;;;;;;;31.53;20.10;;;-4.60;1.00;;;;;;5140316;27;20809;-64
2023/01/21 06:20:07;;;;;;;34.50;21.07;;;-4.60;1.00;;;;;;5138555;27;20440;-64
2023/01/21 06:22:34;;;;;;;32.87;22.20;;;-4.60;99.90;;;;;;5138239;27;20433;-64
2023/01/21 06:25:01;;;;;;;31.70;21.60;;;-4.70;81.10;;;;;;5138128;27;20566;-64
2023/01/21 06:27:30;;;;;;;30.37;20.23;;;-4.70;99.90;;;;;;5139647;27;20757;-64
2023/01/21 06:29:57;;;;;;;32.43;20.83;;;-4.70;1.00;;;;;;5139003;27;20454;-64
2023/01/21 06:32:24;;;;;;;33.30;21.50;;;-4.70;1.00;;;;;;5138985;27;20465;-63
2023/01/21 06:34:51;;;;;;;37.23;22.47;;;-4.70;1.00;;;;;;5139050;27;20433;-62
2023/01/21 06:37:18;;;;;;;32.23;20.23;;;-4.70;1.00;;;;;;5138054;27;20447;-65
2023/01/21 06:39:45;;;;;;;29.63;19.93;;;-4.60;99.90;;;;;;5136760;27;20740;-65
2023/01/21 06:42:13;;;;;;;35.77;23.17;;;-4.70;99.90;;;;;;5123902;27;20482;-65
2023/01/21 06:44:41;;;;;;;32.87;21.30;;;-4.70;99.90;;;;;;5138122;27;20469;-65
2023/01/21 06:47:09;;;;;;;35.60;22.13;;;-4.60;99.90;;;;;;5139643;27;20462;-65
2023/01/21 06:49:36;;;;;;;35.07;22.87;;;-4.70;99.90;;;;;;5133401;27;20474;-65
2023/01/21 06:52:03;;;;;;;28.10;20.27;;;-4.70;1.00;;;;;;5138763;27;20461;-65
2023/01/21 06:54:31;;;;;;;36.63;22.63;;;-4.70;1.00;;;;;;5136520;27;20489;-65
2023/01/21 06:56:58;;;;;;;27.37;20.00;;;-4.70;99.90;;;;;;5120049;27;20863;-65
2023/01/21 06:59:25;;;;;;;35.63;21.80;;;-4.80;99.90;;;;;;5126338;27;20470;-65
2023/01/21 07:01:54;;;;;;;30.27;21.33;;;-4.80;99.90;;;;;;5137655;27;20489;-65
2023/01/21 07:04:21;;;;;;;32.83;21.47;;;-4.80;44.30;;;;;;5138934;27;20486;-65
2023/01/21 07:06:48;;;;;;;39.50;26.70;;;-4.80;83.80;;;;;;5129797;27;20500;-65
2023/01/21 07:09:15;;;;;;;34.97;23.67;;;-4.80;99.90;;;;;;5138105;27;20933;-65
2023/01/21 07:11:43;;;;;;;40.97;24.13;;;-4.80;99.90;;;;;;5125380;27;20468;-65
2023/01/21 07:14:10;;;;;;;36.00;22.40;;;-4.70;1.00;;;;;;5136437;27;20508;-65
2023/01/21 07:16:38;;;;;;;39.53;24.67;;;-4.70;1.00;;;;;;5135531;27;20454;-65
2023/01/21 07:19:06;;;;;;;37.40;23.67;;;-4.60;99.90;;;;;;5136712;27;20474;-65
2023/01/21 07:21:34;;;;;;;41.17;24.47;;;-4.60;99.90;;;;;;5131662;27;20489;-65
2023/01/21 07:24:01;;;;;;;41.77;25.00;;;-4.60;99.90;;;;;;5137630;27;20469;-65
2023/01/21 07:26:28;;;;;;;46.00;27.70;;;-4.50;1.00;;;;;;5135815;27;20469;-65
2023/01/21 07:28:55;;;;;;;44.83;28.57;;;-4.30;1.00;;;;;;5117918;28;20478;-65
2023/01/21 07:31:22;;;;;;;45.43;28.80;;;-4.20;1.00;;;;;;5118095;28;20456;-65
2023/01/21 07:33:49;;;;;;;41.60;26.30;;;-4.10;1.00;;;;;;5118509;28;20466;-65
2023/01/21 07:36:17;;;;;;;47.60;28.87;;;-4.00;99.90;;;;;;5117970;28;20430;-65
2023/01/21 07:38:45;;;;;;;50.27;29.40;;;-3.90;1.00;;;;;;5118578;27;20785;-65
2023/01/21 07:41:12;;;;;;;45.33;27.43;;;-3.80;1.00;;;;;;5118094;28;20470;-65
2023/01/21 07:43:39;;;;;;;48.43;29.87;;;-3.70;99.90;;;;;;5117850;28;20965;-65
2023/01/21 07:46:06;;;;;;;46.00;27.20;;;-3.70;99.90;;;;;;5118119;28;20441;-65
2023/01/21 07:48:33;;;;;;;45.03;26.13;;;-3.60;99.90;;;;;;5120017;28;20460;-65
2023/01/21 07:51:00;;;;;;;58.17;27.93;;;-3.50;99.90;;;;;;5136556;27;20451;-65
2023/01/21 07:53:29;;;;;;;44.50;26.83;;;-3.50;99.90;;;;;;5138128;27;20434;-65
2023/01/21 07:55:56;;;;;;;59.30;30.03;;;-3.40;99.90;;;;;;5138175;27;20737;-65
2023/01/21 07:58:23;;;;;;;52.47;27.80;;;-3.40;99.90;;;;;;5138414;27;20458;-65
2023/01/21 08:00:50;;;;;;;52.13;31.83;;;-3.30;99.90;;;;;;5137452;27;20921;-65
2023/01/21 08:03:20;;;;;;;49.73;31.10;;;-3.30;99.90;;;;;;5118739;27;20455;-66
2023/01/21 08:05:47;;;;;;;52.97;29.70;;;-3.20;99.90;;;;;;5123837;27;20487;-66
2023/01/21 08:08:15;;;;;;;45.07;28.27;;;-3.10;99.90;;;;;;5141982;27;20458;-66
2023/01/21 08:10:43;;;;;;;50.00;29.17;;;-3.10;99.90;;;;;;5143123;27;20504;-65
2023/01/21 08:13:11;;;;;;;49.83;28.93;;;-3.10;99.90;;;;;;5139968;27;20964;-66
2023/01/21 08:15:38;;;;;;;51.03;28.10;;;-3.00;99.90;;;;;;5142746;27;20455;-66
2023/01/21 08:18:06;;;;;;;45.30;27.83;;;-2.90;99.90;;;;;;5141550;27;20545;-66
2023/01/21 08:20:33;;;;;;;52.27;30.40;;;-2.80;99.90;;;;;;5142259;27;20740;-66
2023/01/21 08:23:01;;;;;;;55.60;32.63;;;-2.80;99.90;;;;;;5139403;27;20459;-66
2023/01/21 08:25:28;;;;;;;52.67;31.13;;;-2.70;99.90;;;;;;5133303;27;20438;-66
2023/01/21 08:27:59;;;;;;;48.20;28.63;;;-2.70;99.90;;;;;;5119489;28;20433;-66
2023/01/21 08:30:26;;;;;;;51.00;28.00;;;-2.60;99.90;;;;;;5119421;28;20777;-66
2023/01/21 08:32:53;;;;;;;42.83;27.20;;;-2.60;99.90;;;;;;5120914;28;20873;-65
2023/01/21 08:35:20;;;;;;;45.57;28.70;;;-2.60;99.90;;;;;;5131855;27;20439;-66
2023/01/21 08:37:48;;;;;;;43.27;26.47;;;-2.60;99.90;;;;;;5120072;28;20497;-65
2023/01/21 08:40:16;;;;;;;42.23;26.90;;;-2.60;99.90;;;;;;5117850;28;20490;-66
2023/01/21 08:42:43;;;;;;;44.00;27.33;;;-2.50;99.90;;;;;;5117574;28;20498;-65
2023/01/21 08:45:12;;;;;;;41.07;26.03;;;-2.50;99.90;;;;;;5117507;28;20434;-66
2023/01/21 08:47:39;;;;;;;49.30;26.93;;;-2.50;99.90;;;;;;5119356;27;20444;-66
2023/01/21 08:50:08;;;;;;;40.77;25.53;;;-2.40;99.90;;;;;;5119593;27;20922;-66
2023/01/21 08:52:35;;;;;;;42.63;25.70;;;-2.30;99.90;;;;;;5119378;28;20541;-66
2023/01/21 08:55:02;;;;;;;41.73;25.43;;;-2.30;99.90;;;;;;5120165;28;20471;-66
2023/01/21 08:57:29;;;;;;;43.90;25.70;;;-2.20;99.90;;;;;;5131752;27;20868;-66
2023/01/21 08:59:56;;;;;;;44.63;28.67;;;-2.10;99.90;;;;;;5141658;27;20458;-66
2023/01/21 09:02:25;;;;;;;37.80;24.77;;;-2.00;99.90;;;;;;5139861;27;20460;-66
2023/01/21 09:04:52;;;;;;;36.90;25.67;;;-2.00;99.90;;;;;;5139356;27;20466;-66
2023/01/21 09:07:19;;;;;;;40.10;24.50;;;-2.10;99.90;;;;;;5137213;27;20743;-66
2023/01/21 09:09:48;;;;;;;39.60;24.40;;;-2.00;99.90;;;;;;5139085;27;20509;-66
2023/01/21 09:12:16;;;;;;;41.63;24.97;;;-2.00;99.90;;;;;;5129491;27;20486;-66
2023/01/21 09:14:43;;;;;;;43.20;25.77;;;-1.90;99.90;;;;;;5119095;28;20491;-66
2023/01/21 09:17:10;;;;;;;39.73;24.77;;;-1.90;99.90;;;;;;5117568;27;20466;-67
2023/01/21 09:19:39;;;;;;;34.93;22.63;;;-1.90;99.90;;;;;;5119093;27;20462;-67
2023/01/21 09:22:08;;;;;;;41.00;24.30;;;-1.80;99.90;;;;;;5119022;27;20837;-67
2023/01/21 09:24:35;;;;;;;39.13;22.90;;;-1.80;99.90;;;;;;5118726;28;20460;-67
2023/01/21 09:27:02;;;;;;;34.87;22.33;;;-1.70;99.90;;;;;;5118571;28;20455;-67
2023/01/21 09:29:29;;;;;;;36.87;24.53;;;-1.70;99.90;;;;;;5127831;27;20906;-67
2023/01/21 09:31:56;;;;;;;41.60;23.87;;;-1.70;99.90;;;;;;5139728;27;20457;-67
2023/01/21 09:34:23;;;;;;;37.57;24.87;;;-1.60;99.90;;;;;;5138452;27;20463;-67
2023/01/21 09:36:52;;;;;;;38.43;23.87;;;-1.50;99.90;;;;;;5140959;27;20440;-67
2023/01/21 09:39:19;;;;;;;41.30;24.70;;;-1.50;99.90;;;;;;5138732;27;20458;-67
2023/01/21 09:41:50;;;;;;;47.10;26.30;;;-1.40;99.90;;;;;;5140306;27;20484;-67
2023/01/21 09:44:25;;;;;;;36.97;23.70;;;-1.50;99.90;;;;;;5140408;27;20467;-67
2023/01/21 09:46:58;;;;;;;36.90;23.40;;;-1.40;99.90;;;;;;5140781;27;20439;-67
2023/01/21 09:49:30;;;;;;;32.27;21.13;;;-1.30;99.90;;;;;;5137656;27;20465;-67
2023/01/21 09:52:06;;;;;;;36.20;24.57;;;-1.30;99.90;;;;;;5120158;28;20544;-67
2023/01/21 09:54:35;;;;;;;32.60;23.60;;;-1.20;99.90;;;;;;5119496;27;20472;-67
2023/01/21 09:57:29;;;;;;;35.10;22.20;;;-1.20;99.90;;;;;;5128690;27;20462;-67
2023/01/21 10:00:05;;;;;;;40.90;23.87;;;-1.10;99.90;;;;;;5138203;27;20446;-67
2023/01/21 10:02:40;;;;;;;31.80;22.40;;;-1.10;99.90;;;;;;5138362;27;20504;-67
2023/01/21 10:06:04;;;;;;;37.17;23.47;;;-1.00;78.40;;;;;;5138623;27;20726;-67
2023/01/21 10:08:40;;;;;;;35.77;22.40;;;-1.00;1.00;;;;;;5062157;28;20873;-68
2023/01/21 10:11:25;;;;;;;36.17;21.70;;;-1.00;1.00;;;;;;5129115;27;20455;-67
2023/01/21 10:14:15;;;;;;;33.30;21.93;;;-1.00;1.00;;;;;;5117288;28;20481;-67
2023/01/21 10:16:53;;;;;;;36.27;24.17;;;-0.80;99.90;;;;;;5120690;27;20468;-68
2023/01/21 10:19:24;;;;;;;37.67;23.07;;;-0.90;99.90;;;;;;5138466;27;20499;-67
2023/01/21 10:21:54;;;;;;;35.60;23.90;;;-0.80;99.90;;;;;;5137873;27;20605;-67
2023/01/21 10:24:27;;;;;;;31.77;21.80;;;-0.70;1.00;;;;;;5138407;27;20730;-67
2023/01/21 10:26:54;;;;;;;34.33;23.47;;;-0.70;1.00;;;;;;5137226;27;20437;-67
2023/01/21 10:29:24;;;;;;;36.57;24.13;;;-0.60;1.00;;;;;;5136840;27;20457;-68
2023/01/21 10:31:58;;;;;;;36.50;21.77;;;-0.60;99.90;;;;;;5139379;27;20468;-67
2023/01/21 10:34:29;;;;;;;36.13;22.70;;;-0.60;1.00;;;;;;5139817;27;20541;-67
2023/01/21 10:37:15;;;;;;;33.67;21.00;;;-0.50;1.00;;;;;;5139407;27;20472;-67
2023/01/21 10:39:55;;;;;;;31.93;21.03;;;-0.40;99.90;;;;;;5138267;27;20438;-67
2023/01/21 10:42:37;;;;;;;33.37;22.57;;;-0.50;99.90;;;;;;5139470;27;20499;-67
2023/01/21 10:45:12;;;;;;;32.73;20.83;;;-0.50;1.00;;;;;;5139501;27;20759;-68
2023/01/21 10:47:48;;;;;;;29.90;21.47;;;-0.40;99.90;;;;;;5139381;27;20485;-67
2023/01/21 10:50:31;;;;;;;29.03;20.40;;;-0.40;99.90;;;;;;5118504;28;20441;-67
2023/01/21 10:53:06;;;;;;;32.00;20.80;;;-0.30;99.90;;;;;;5118340;28;20462;-67
2023/01/21 10:55:43;;;;;;;32.60;22.07;;;-0.20;13.70;;;;;;5118962;28;20454;-67
2023/01/21 10:58:27;;;;;;;28.00;19.83;;;-0.20;1.00;;;;;;5118706;28;20470;-67
2023/01/21 11:00:56;;;;;;;31.67;20.70;;;-0.20;99.90;;;;;;5118859;28;20466;-67
2023/01/21 11:03:32;;;;;;;34.00;23.80;;;0.10;99.90;;;;;;5118340;28;20590;-67
2023/01/21 11:06:01;;;;;;;35.57;21.70;;;0.30;99.90;;;;;;5118203;28;20933;-67
2023/01/21 11:08:28;;;;;;;33.60;21.57;;;0.50;99.90;;;;;;5117365;28;20441;-66
2023/01/21 11:10:57;;;;;;;28.70;20.33;;;0.40;99.90;;;;;;5116634;28;20463;-66
2023/01/21 11:13:24;;;;;;;28.90;20.10;;;0.30;20.90;;;;;;5117830;28;20487;-66
2023/01/21 11:15:56;;;;;;;30.67;20.00;;;0.40;99.90;;;;;;5133070;27;20725;-66
2023/01/21 11:18:29;;;;;;;26.40;19.60;;;0.40;99.90;;;;;;5138314;27;20879;-65
2023/01/21 11:20:59;;;;;;;28.30;18.97;;;0.40;99.90;;;;;;5122261;27;21074;-66
2023/01/21 11:23:28;;;;;;;27.30;18.23;;;0.40;99.90;;;;;;5117339;28;20495;-66
2023/01/21 11:26:05;;;;;;;27.07;19.43;;;0.40;95.10;;;;;;5119910;27;20459;-66
2023/01/21 11:28:33;;;;;;;24.60;17.27;;;0.40;46.70;;;;;;5120274;27;20494;-66
2023/01/21 11:31:08;;;;;;;24.13;17.10;;;0.40;25.50;;;;;;5128534;27;20532;-66
2023/01/21 11:33:36;;;;;;;24.87;17.23;;;0.40;9.70;;;;;;5138175;27;20458;-66
2023/01/21 11:36:12;;;;;;;25.87;17.50;;;0.40;1.00;;;;;;5130770;27;20459;-66
2023/01/21 11:38:40;;;;;;;24.50;17.43;;;0.40;1.00;;;;;;5135183;27;20470;-67
2023/01/21 11:41:17;;;;;;;30.77;19.00;;;0.50;1.00;;;;;;5135671;27;20465;-66
2023/01/21 11:43:46;;;;;;;22.77;17.20;;;0.50;1.00;;;;;;5137709;27;20482;-67
2023/01/21 11:46:29;;;;;;;22.97;16.50;;;0.60;1.00;;;;;;5136696;27;20463;-67
2023/01/21 11:49:11;;;;;;;26.73;18.10;;;0.60;1.00;;;;;;5136856;27;20451;-67
2023/01/21 11:51:40;;;;;;;28.33;17.73;;;0.60;1.00;;;;;;5135490;27;20459;-66
2023/01/21 11:54:11;;;;;;;25.77;17.43;;;0.60;1.00;;;;;;5137676;27;20472;-66
2023/01/21 11:56:42;;;;;;;28.63;18.17;;;0.60;1.00;;;;;;5136690;27;20474;-64
2023/01/21 11:59:21;;;;;;;28.20;19.17;;;0.50;1.00;;;;;;5136464;27;20520;-62
2023/01/21 12:01:52;;;;;;;23.90;17.90;;;0.60;1.00;;;;;;5132327;27;20771;-63
2023/01/21 12:04:19;;;;;;;26.77;16.07;;;0.60;1.00;;;;;;5115128;28;20452;-63
2023/01/21 12:06:50;;;;;;;25.67;16.60;;;0.60;1.00;;;;;;5135314;27;20474;-63
2023/01/21 12:09:19;;;;;;;29.23;17.50;;;0.60;1.00;;;;;;5117308;27;20558;-63
2023/01/21 12:12:15;;;;;;;27.07;15.97;;;0.60;1.00;;;;;;5115976;28;20459;-64
2023/01/21 12:14:51;;;;;;;25.03;16.83;;;0.60;1.00;;;;;;5117284;28;20479;-64
2023/01/21 12:17:29;;;;;;;25.77;17.60;;;0.50;1.00;;;;;;5117710;28;20818;-64
2023/01/21 12:20:11;;;;;;;27.67;17.90;;;0.60;1.00;;;;;;5136796;28;20436;-64
2023/01/21 12:22:52;;;;;;;30.50;18.00;;;0.60;1.00;;;;;;5137303;27;20468;-65
2023/01/21 12:25:30;;;;;;;26.30;18.60;;;0.60;1.00;;;;;;5133089;27;20471;-64
2023/01/21 12:28:13;;;;;;;26.50;17.93;;;0.60;1.00;;;;;;5116415;28;20458;-63
2023/01/21 12:30:50;;;;;;;29.03;19.17;;;0.60;1.00;;;;;;5115552;28;20463;-64
2023/01/21 12:33:23;;;;;;;33.03;19.70;;;0.60;1.00;;;;;;5117269;28;20903;-64
2023/01/21 12:35:54;;;;;;;28.67;18.10;;;0.60;1.00;;;;;;5116657;28;20880;-63
2023/01/21 12:38:25;;;;;;;34.43;20.10;;;0.70;1.00;;;;;;5116359;28;20747;-64
2023/01/21 12:40:57;;;;;;;35.37;19.87;;;0.60;1.00;;;;;;5116108;28;20467;-64
2023/01/21 12:43:32;;;;;;;31.43;19.73;;;0.60;1.00;;;;;;5115634;28;20486;-63
2023/01/21 12:46:04;;;;;;;28.17;18.27;;;0.60;1.00;;;;;;5114590;28;20804;-64
2023/01/21 12:48:36;;;;;;;33.23;19.43;;;0.70;1.00;;;;;;5114300;28;20464;-63
2023/01/21 12:51:07;;;;;;;32.87;19.33;;;0.80;1.00;;;;;;5126930;27;20783;-63
2023/01/21 12:53:40;;;;;;;32.87;19.90;;;0.80;1.00;;;;;;5137335;27;20509;-64